sensor_id;sensor_type;location;lat;lon;timestamp;pressure;altitude;pressure_sealevel;temperature;humidity
71889;BME280;59762;49.998;14.858;2023-05-10T00:00:54;97070.16;;;8.52;70.85
71889;BME280;59762;49.998;14.858;2023-05-10T00:03:19;97066.59;;;8.43;70.78
71889;BME280;59762;49.998;14.858;2023-05-10T00:05:45;97071.38;;;8.40;71.07
71889;BME280;59762;49.998;14.858;2023-05-10T00:08:10;97064.16;;;8.50;70.59
71889;BME280;59762;49.998;14.858;2023-05-10T00:10:36;97071.16;;;8.33;71.68
71889;BME280;59762;49.998;14.858;2023-05-10T00:13:02;97062.09;;;8.26;72.26
71889;BME280;59762;49.998;14.858;2023-05-10T00:15:28;97062.47;;;8.13;73.20
71889;BME280;59762;49.998;14.858;2023-05-10T00:17:56;97052.41;;;8.07;73.28
71889;BME280;59762;49.998;14.858;2023-05-10T00:20:22;97050.38;;;8.01;74.10
71889;BME280;59762;49.998;14.858;2023-05-10T00:22:47;97053.13;;;8.09;72.80
71889;BME280;59762;49.998;14.858;2023-05-10T00:25:13;97052.66;;;8.14;72.83
71889;BME280;59762;49.998;14.858;2023-05-10T00:27:39;97054.50;;;8.13;72.84
71889;BME280;59762;49.998;14.858;2023-05-10T00:30:05;97048.31;;;8.13;72.80
71889;BME280;59762;49.998;14.858;2023-05-10T00:32:31;97054.50;;;8.13;72.44
71889;BME280;59762;49.998;14.858;2023-05-10T00:34:57;97044.84;;;8.13;72.86
71889;BME280;59762;49.998;14.858;2023-05-10T00:37:23;97045.22;;;8.18;72.06
71889;BME280;59762;49.998;14.858;2023-05-10T00:39:48;97045.06;;;8.01;73.17
71889;BME280;59762;49.998;14.858;2023-05-10T00:42:14;97035.94;;;8.04;73.00
71889;BME280;59762;49.998;14.858;2023-05-10T00:44:40;97036.09;;;8.02;73.53
71889;BME280;59762;49.998;14.858;2023-05-10T00:47:05;97044.00;;;8.12;72.73
71889;BME280;59762;49.998;14.858;2023-05-10T00:49:31;97030.63;;;8.04;73.51
71889;BME280;59762;49.998;14.858;2023-05-10T00:51:57;97036.22;;;8.01;73.47
71889;BME280;59762;49.998;14.858;2023-05-10T00:54:23;97033.34;;;7.77;75.24
71889;BME280;59762;49.998;14.858;2023-05-10T00:56:48;97038.56;;;7.69;75.71
71889;BME280;59762;49.998;14.858;2023-05-10T00:59:16;97042.00;;;7.79;75.40
71889;BME280;59762;49.998;14.858;2023-05-10T01:01:43;97024.19;;;7.89;74.61
71889;BME280;59762;49.998;14.858;2023-05-10T01:04:11;97029.03;;;7.93;74.26
71889;BME280;59762;49.998;14.858;2023-05-10T01:06:38;97031.22;;;7.80;75.06
71889;BME280;59762;49.998;14.858;2023-05-10T01:09:04;97029.97;;;7.57;76.50
71889;BME280;59762;49.998;14.858;2023-05-10T01:11:33;97033.16;;;7.61;76.59
71889;BME280;59762;49.998;14.858;2023-05-10T01:13:59;97034.44;;;7.57;77.37
71889;BME280;59762;49.998;14.858;2023-05-10T01:16:24;97031.25;;;7.53;76.81
71889;BME280;59762;49.998;14.858;2023-05-10T01:18:52;97030.88;;;7.48;77.44
71889;BME280;59762;49.998;14.858;2023-05-10T01:24:37;97016.09;;;7.63;76.57
71889;BME280;59762;49.998;14.858;2023-05-10T01:32:21;97021.81;;;7.41;77.87
71889;BME280;59762;49.998;14.858;2023-05-10T01:35:06;97013.16;;;7.84;75.06
71889;BME280;59762;49.998;14.858;2023-05-10T01:37:56;97013.84;;;7.86;75.23
71889;BME280;59762;49.998;14.858;2023-05-10T01:40:36;97014.06;;;7.92;75.05
71889;BME280;59762;49.998;14.858;2023-05-10T01:43:04;97015.66;;;8.21;73.00
71889;BME280;59762;49.998;14.858;2023-05-10T01:45:47;97006.91;;;8.10;73.58
71889;BME280;59762;49.998;14.858;2023-05-10T01:48:17;97011.03;;;7.87;75.37
71889;BME280;59762;49.998;14.858;2023-05-10T01:50:46;97003.81;;;7.97;74.55
71889;BME280;59762;49.998;14.858;2023-05-10T01:53:12;97014.91;;;7.93;74.84
71889;BME280;59762;49.998;14.858;2023-05-10T01:55:51;97013.31;;;7.82;75.57
71889;BME280;59762;49.998;14.858;2023-05-10T01:58:25;97010.28;;;7.77;75.65
71889;BME280;59762;49.998;14.858;2023-05-10T02:00:52;97008.59;;;7.76;75.65
71889;BME280;59762;49.998;14.858;2023-05-10T02:03:22;97012.63;;;7.80;75.28
71889;BME280;59762;49.998;14.858;2023-05-10T02:05:50;97013.63;;;7.97;74.92
71889;BME280;59762;49.998;14.858;2023-05-10T02:08:17;97009.13;;;7.80;75.70
71889;BME280;59762;49.998;14.858;2023-05-10T02:10:45;97006.47;;;7.97;74.10
71889;BME280;59762;49.998;14.858;2023-05-10T02:13:12;97007.00;;;7.83;75.63
71889;BME280;59762;49.998;14.858;2023-05-10T02:15:40;97008.53;;;7.86;75.40
71889;BME280;59762;49.998;14.858;2023-05-10T02:18:07;97008.34;;;8.05;74.33
71889;BME280;59762;49.998;14.858;2023-05-10T02:20:34;97005.88;;;8.03;74.75
71889;BME280;59762;49.998;14.858;2023-05-10T02:23:01;97000.00;;;8.00;74.95
71889;BME280;59762;49.998;14.858;2023-05-10T02:25:29;97001.28;;;7.96;75.00
71889;BME280;59762;49.998;14.858;2023-05-10T02:27:56;97001.38;;;8.04;75.00
71889;BME280;59762;49.998;14.858;2023-05-10T02:30:23;96999.19;;;7.99;75.43
71889;BME280;59762;49.998;14.858;2023-05-10T02:32:51;97001.09;;;8.07;75.22
71889;BME280;59762;49.998;14.858;2023-05-10T02:35:18;96996.47;;;8.27;73.95
71889;BME280;59762;49.998;14.858;2023-05-10T02:37:45;96997.13;;;8.11;74.87
71889;BME280;59762;49.998;14.858;2023-05-10T02:40:12;97004.19;;;8.02;75.12
71889;BME280;59762;49.998;14.858;2023-05-10T02:42:41;97002.59;;;7.92;75.76
71889;BME280;59762;49.998;14.858;2023-05-10T02:45:12;96992.50;;;7.95;76.08
71889;BME280;59762;49.998;14.858;2023-05-10T02:47:38;96998.94;;;8.10;75.46
71889;BME280;59762;49.998;14.858;2023-05-10T02:50:05;97004.75;;;8.06;75.89
71889;BME280;59762;49.998;14.858;2023-05-10T02:52:39;96998.19;;;8.00;75.97
71889;BME280;59762;49.998;14.858;2023-05-10T02:55:05;96999.13;;;7.91;76.93
71889;BME280;59762;49.998;14.858;2023-05-10T02:57:37;96996.31;;;7.93;76.81
71889;BME280;59762;49.998;14.858;2023-05-10T03:00:04;96991.38;;;7.98;76.40
71889;BME280;59762;49.998;14.858;2023-05-10T03:02:30;96994.47;;;7.93;76.90
71889;BME280;59762;49.998;14.858;2023-05-10T03:04:56;96994.16;;;7.96;77.42
71889;BME280;59762;49.998;14.858;2023-05-10T03:07:22;96994.84;;;7.98;76.95
71889;BME280;59762;49.998;14.858;2023-05-10T03:09:48;96997.13;;;7.93;77.52
71889;BME280;59762;49.998;14.858;2023-05-10T03:18:22;96989.16;;;7.93;77.55
71889;BME280;59762;49.998;14.858;2023-05-10T03:20:50;96987.56;;;8.00;77.61
71889;BME280;59762;49.998;14.858;2023-05-10T03:23:27;96989.06;;;8.03;77.19
71889;BME280;59762;49.998;14.858;2023-05-10T03:25:55;96984.69;;;7.94;77.83
71889;BME280;59762;49.998;14.858;2023-05-10T03:28:24;96989.41;;;7.82;78.61
71889;BME280;59762;49.998;14.858;2023-05-10T03:30:53;96978.50;;;7.93;78.25
71889;BME280;59762;49.998;14.858;2023-05-10T03:33:19;96976.72;;;7.94;78.16
71889;BME280;59762;49.998;14.858;2023-05-10T03:35:46;96978.97;;;8.06;77.44
71889;BME280;59762;49.998;14.858;2023-05-10T03:38:12;96982.91;;;8.38;76.54
71889;BME280;59762;49.998;14.858;2023-05-10T03:40:38;96977.91;;;8.60;75.07
71889;BME280;59762;49.998;14.858;2023-05-10T03:43:04;96973.16;;;8.97;73.45
71889;BME280;59762;49.998;14.858;2023-05-10T03:45:30;96971.88;;;9.17;72.12
71889;BME280;59762;49.998;14.858;2023-05-10T03:47:57;96971.47;;;9.38;70.92
71889;BME280;59762;49.998;14.858;2023-05-10T03:50:23;96965.31;;;9.37;71.35
71889;BME280;59762;49.998;14.858;2023-05-10T03:52:49;96972.06;;;9.73;69.20
71889;BME280;59762;49.998;14.858;2023-05-10T03:55:15;96969.44;;;9.97;68.75
71889;BME280;59762;49.998;14.858;2023-05-10T03:57:41;96974.47;;;10.08;67.47
71889;BME280;59762;49.998;14.858;2023-05-10T04:00:07;96962.66;;;9.37;70.20
71889;BME280;59762;49.998;14.858;2023-05-10T04:02:33;96958.75;;;9.24;71.33
71889;BME280;59762;49.998;14.858;2023-05-10T04:04:59;96972.25;;;8.89;72.74
71889;BME280;59762;49.998;14.858;2023-05-10T04:07:24;96970.28;;;8.91;73.15
71889;BME280;59762;49.998;14.858;2023-05-10T04:09:50;96966.38;;;8.77;73.29
71889;BME280;59762;49.998;14.858;2023-05-10T04:12:15;96965.56;;;8.85;73.06
71889;BME280;59762;49.998;14.858;2023-05-10T04:14:41;96973.94;;;9.23;71.82
71889;BME280;59762;49.998;14.858;2023-05-10T04:17:07;96974.44;;;9.27;71.72
71889;BME280;59762;49.998;14.858;2023-05-10T04:19:32;96980.38;;;9.13;72.40
71889;BME280;59762;49.998;14.858;2023-05-10T04:21:58;96979.06;;;9.17;72.08
71889;BME280;59762;49.998;14.858;2023-05-10T04:24:24;96974.72;;;9.16;73.62
71889;BME280;59762;49.998;14.858;2023-05-10T04:26:50;96965.94;;;9.23;73.17
71889;BME280;59762;49.998;14.858;2023-05-10T04:29:16;96980.56;;;9.85;70.67
71889;BME280;59762;49.998;14.858;2023-05-10T04:31:42;96976.53;;;11.09;65.90
71889;BME280;59762;49.998;14.858;2023-05-10T04:34:08;96974.44;;;11.27;64.18
71889;BME280;59762;49.998;14.858;2023-05-10T04:36:33;96978.06;;;12.25;60.29
71889;BME280;59762;49.998;14.858;2023-05-10T04:39:02;96983.84;;;12.74;59.65
71889;BME280;59762;49.998;14.858;2023-05-10T04:41:28;96981.16;;;13.11;58.89
71889;BME280;59762;49.998;14.858;2023-05-10T04:43:55;96980.22;;;13.33;57.73
71889;BME280;59762;49.998;14.858;2023-05-10T04:46:20;96978.47;;;13.54;57.48
71889;BME280;59762;49.998;14.858;2023-05-10T04:48:46;96989.94;;;13.34;57.17
71889;BME280;59762;49.998;14.858;2023-05-10T04:51:11;96990.84;;;13.55;56.94
71889;BME280;59762;49.998;14.858;2023-05-10T04:53:37;96988.16;;;13.70;57.04
71889;BME280;59762;49.998;14.858;2023-05-10T04:56:03;96986.97;;;13.00;59.08
71889;BME280;59762;49.998;14.858;2023-05-10T04:58:29;96984.84;;;13.24;58.39
71889;BME280;59762;49.998;14.858;2023-05-10T05:00:55;96996.81;;;13.72;56.48
71889;BME280;59762;49.998;14.858;2023-05-10T05:03:21;97001.31;;;14.00;56.28
71889;BME280;59762;49.998;14.858;2023-05-10T05:05:47;97004.03;;;13.86;56.35
71889;BME280;59762;49.998;14.858;2023-05-10T05:08:13;97005.34;;;14.25;55.76
71889;BME280;59762;49.998;14.858;2023-05-10T05:10:38;97006.56;;;14.08;55.32
71889;BME280;59762;49.998;14.858;2023-05-10T05:13:04;97003.16;;;14.00;55.29
71889;BME280;59762;49.998;14.858;2023-05-10T05:15:29;97001.03;;;13.95;54.75
71889;BME280;59762;49.998;14.858;2023-05-10T05:17:56;97008.34;;;14.37;55.86
71889;BME280;59762;49.998;14.858;2023-05-10T05:20:21;97000.31;;;14.85;53.68
71889;BME280;59762;49.998;14.858;2023-05-10T05:22:47;97010.09;;;14.44;54.70
71889;BME280;59762;49.998;14.858;2023-05-10T05:25:13;97006.53;;;14.23;56.72
71889;BME280;59762;49.998;14.858;2023-05-10T05:27:39;97002.22;;;14.43;56.37
71889;BME280;59762;49.998;14.858;2023-05-10T05:30:05;97002.38;;;14.20;55.91
71889;BME280;59762;49.998;14.858;2023-05-10T05:32:31;97003.72;;;13.95;56.91
71889;BME280;59762;49.998;14.858;2023-05-10T05:34:57;96993.19;;;14.50;55.31
71889;BME280;59762;49.998;14.858;2023-05-10T05:37:23;96999.09;;;14.04;56.46
71889;BME280;59762;49.998;14.858;2023-05-10T05:39:49;96992.03;;;14.59;55.85
71889;BME280;59762;49.998;14.858;2023-05-10T05:42:15;96989.03;;;14.48;55.78
71889;BME280;59762;49.998;14.858;2023-05-10T05:44:42;96990.56;;;14.57;55.46
71889;BME280;59762;49.998;14.858;2023-05-10T05:47:09;96988.22;;;14.75;54.48
71889;BME280;59762;49.998;14.858;2023-05-10T05:49:34;96987.34;;;13.55;57.39
71889;BME280;59762;49.998;14.858;2023-05-10T05:52:01;96987.91;;;14.00;56.37
71889;BME280;59762;49.998;14.858;2023-05-10T05:54:27;96984.63;;;14.05;57.66
71889;BME280;59762;49.998;14.858;2023-05-10T05:56:57;96982.16;;;13.89;56.95
71889;BME280;59762;49.998;14.858;2023-05-10T05:59:23;96995.22;;;13.92;56.21
71889;BME280;59762;49.998;14.858;2023-05-10T06:01:49;96984.25;;;13.72;57.24
71889;BME280;59762;49.998;14.858;2023-05-10T06:04:15;96990.50;;;14.29;56.63
71889;BME280;59762;49.998;14.858;2023-05-10T06:06:41;96988.34;;;13.68;57.15
71889;BME280;59762;49.998;14.858;2023-05-10T06:09:08;96979.75;;;13.58;57.11
71889;BME280;59762;49.998;14.858;2023-05-10T06:11:34;96988.31;;;13.83;57.71
71889;BME280;59762;49.998;14.858;2023-05-10T06:14:00;96987.75;;;13.87;57.28
71889;BME280;59762;49.998;14.858;2023-05-10T06:16:27;96989.47;;;13.59;57.33
71889;BME280;59762;49.998;14.858;2023-05-10T06:18:53;96996.13;;;13.34;57.19
71889;BME280;59762;49.998;14.858;2023-05-10T06:21:19;96989.31;;;13.03;59.53
71889;BME280;59762;49.998;14.858;2023-05-10T06:23:44;96992.06;;;13.38;59.10
71889;BME280;59762;49.998;14.858;2023-05-10T06:26:10;96995.44;;;13.76;59.32
71889;BME280;59762;49.998;14.858;2023-05-10T06:28:36;96987.03;;;13.64;59.01
71889;BME280;59762;49.998;14.858;2023-05-10T06:31:04;96987.06;;;13.50;58.72
71889;BME280;59762;49.998;14.858;2023-05-10T06:33:30;96995.47;;;13.61;57.97
71889;BME280;59762;49.998;14.858;2023-05-10T06:35:56;96995.88;;;13.94;58.95
71889;BME280;59762;49.998;14.858;2023-05-10T06:38:22;96990.31;;;13.95;57.80
71889;BME280;59762;49.998;14.858;2023-05-10T06:40:48;96999.91;;;14.40;59.27
71889;BME280;59762;49.998;14.858;2023-05-10T06:43:13;96985.91;;;14.23;59.18
71889;BME280;59762;49.998;14.858;2023-05-10T06:45:39;96988.84;;;14.28;58.54
71889;BME280;59762;49.998;14.858;2023-05-10T06:48:06;96990.97;;;14.33;58.08
71889;BME280;59762;49.998;14.858;2023-05-10T06:50:33;96992.72;;;13.90;57.79
71889;BME280;59762;49.998;14.858;2023-05-10T06:52:59;96991.66;;;14.20;58.41
71889;BME280;59762;49.998;14.858;2023-05-10T06:55:25;96988.84;;;14.70;58.12
71889;BME280;59762;49.998;14.858;2023-05-10T06:57:51;96987.19;;;14.27;56.72
71889;BME280;59762;49.998;14.858;2023-05-10T07:00:18;96987.84;;;14.15;57.27
71889;BME280;59762;49.998;14.858;2023-05-10T07:02:44;96998.00;;;14.19;57.72
71889;BME280;59762;49.998;14.858;2023-05-10T07:05:10;96988.34;;;14.39;57.57
71889;BME280;59762;49.998;14.858;2023-05-10T07:07:35;96986.81;;;14.79;57.07
71889;BME280;59762;49.998;14.858;2023-05-10T07:10:01;96984.94;;;14.31;56.29
71889;BME280;59762;49.998;14.858;2023-05-10T07:12:27;96990.53;;;14.78;56.72
71889;BME280;59762;49.998;14.858;2023-05-10T07:14:53;96984.88;;;14.66;56.41
71889;BME280;59762;49.998;14.858;2023-05-10T07:17:19;96983.25;;;14.99;55.58
71889;BME280;59762;49.998;14.858;2023-05-10T07:19:45;96983.84;;;14.95;55.35
71889;BME280;59762;49.998;14.858;2023-05-10T07:22:10;96985.00;;;15.07;55.05
71889;BME280;59762;49.998;14.858;2023-05-10T07:24:36;96981.94;;;15.17;57.13
71889;BME280;59762;49.998;14.858;2023-05-10T07:27:02;96980.13;;;14.47;55.90
71889;BME280;59762;49.998;14.858;2023-05-10T07:29:28;96987.16;;;14.69;56.28
71889;BME280;59762;49.998;14.858;2023-05-10T07:31:54;96979.25;;;14.89;55.86
71889;BME280;59762;49.998;14.858;2023-05-10T07:34:19;96978.28;;;15.65;56.57
71889;BME280;59762;49.998;14.858;2023-05-10T07:36:45;96983.47;;;16.13;55.18
71889;BME280;59762;49.998;14.858;2023-05-10T07:39:11;96985.22;;;15.87;53.28
71889;BME280;59762;49.998;14.858;2023-05-10T07:41:37;96980.19;;;15.64;51.96
71889;BME280;59762;49.998;14.858;2023-05-10T07:44:06;96983.91;;;15.70;53.41
71889;BME280;59762;49.998;14.858;2023-05-10T07:46:31;96994.34;;;15.86;53.34
71889;BME280;59762;49.998;14.858;2023-05-10T07:48:57;96980.84;;;15.79;53.01
71889;BME280;59762;49.998;14.858;2023-05-10T07:51:23;96984.38;;;15.80;52.75
71889;BME280;59762;49.998;14.858;2023-05-10T07:53:49;96993.69;;;16.37;52.49
71889;BME280;59762;49.998;14.858;2023-05-10T07:56:21;96981.28;;;16.56;51.84
71889;BME280;59762;49.998;14.858;2023-05-10T07:58:48;96979.78;;;16.34;54.17
71889;BME280;59762;49.998;14.858;2023-05-10T08:01:13;96981.97;;;16.04;51.43
71889;BME280;59762;49.998;14.858;2023-05-10T08:03:39;96985.31;;;16.19;53.44
71889;BME280;59762;49.998;14.858;2023-05-10T08:06:05;96975.34;;;16.00;51.15
71889;BME280;59762;49.998;14.858;2023-05-10T08:08:31;96979.56;;;16.35;50.86
71889;BME280;59762;49.998;14.858;2023-05-10T08:10:57;96978.00;;;16.73;51.64
71889;BME280;59762;49.998;14.858;2023-05-10T08:13:22;96977.78;;;16.49;50.92
71889;BME280;59762;49.998;14.858;2023-05-10T08:15:48;96973.88;;;15.98;51.16
71889;BME280;59762;49.998;14.858;2023-05-10T08:18:14;96977.91;;;16.28;52.36
71889;BME280;59762;49.998;14.858;2023-05-10T08:20:39;96972.94;;;16.31;50.23
71889;BME280;59762;49.998;14.858;2023-05-10T08:23:05;96977.34;;;16.78;51.15
71889;BME280;59762;49.998;14.858;2023-05-10T08:25:31;96974.66;;;16.71;50.90
71889;BME280;59762;49.998;14.858;2023-05-10T08:27:57;96975.09;;;16.88;50.24
71889;BME280;59762;49.998;14.858;2023-05-10T08:30:22;96977.34;;;17.04;50.25
71889;BME280;59762;49.998;14.858;2023-05-10T08:32:48;96979.19;;;17.49;49.59
71889;BME280;59762;49.998;14.858;2023-05-10T08:35:15;96978.41;;;16.96;48.85
71889;BME280;59762;49.998;14.858;2023-05-10T08:37:41;96981.50;;;16.87;50.03
71889;BME280;59762;49.998;14.858;2023-05-10T08:40:08;96976.53;;;17.23;50.59
71889;BME280;59762;49.998;14.858;2023-05-10T08:42:40;96978.78;;;17.19;51.50
71889;BME280;59762;49.998;14.858;2023-05-10T08:45:08;96974.03;;;17.21;49.83
71889;BME280;59762;49.998;14.858;2023-05-10T08:47:36;96984.44;;;17.05;51.34
71889;BME280;59762;49.998;14.858;2023-05-10T08:50:03;96977.78;;;16.94;48.13
71889;BME280;59762;49.998;14.858;2023-05-10T08:52:30;96977.53;;;17.35;48.42
71889;BME280;59762;49.998;14.858;2023-05-10T08:54:56;96977.56;;;17.41;49.67
71889;BME280;59762;49.998;14.858;2023-05-10T08:57:22;96980.66;;;17.25;48.51
71889;BME280;59762;49.998;14.858;2023-05-10T08:59:48;96983.16;;;17.33;48.16
71889;BME280;59762;49.998;14.858;2023-05-10T09:02:14;96984.44;;;17.11;48.95
71889;BME280;59762;49.998;14.858;2023-05-10T09:04:39;96982.28;;;17.52;48.67
71889;BME280;59762;49.998;14.858;2023-05-10T09:07:06;96977.84;;;17.84;48.88
71889;BME280;59762;49.998;14.858;2023-05-10T09:09:33;96994.38;;;18.00;48.60
71889;BME280;59762;49.998;14.858;2023-05-10T09:11:59;96992.22;;;17.58;49.18
71889;BME280;59762;49.998;14.858;2023-05-10T09:14:25;96987.22;;;17.75;47.56
71889;BME280;59762;49.998;14.858;2023-05-10T09:16:52;96985.63;;;17.54;46.42
71889;BME280;59762;49.998;14.858;2023-05-10T09:19:19;96993.34;;;17.95;48.09
71889;BME280;59762;49.998;14.858;2023-05-10T09:21:45;96995.59;;;18.04;48.34
71889;BME280;59762;49.998;14.858;2023-05-10T09:24:11;96990.13;;;17.73;46.76
71889;BME280;59762;49.998;14.858;2023-05-10T09:26:46;96981.78;;;17.81;48.52
71889;BME280;59762;49.998;14.858;2023-05-10T09:29:14;96995.44;;;17.93;47.40
71889;BME280;59762;49.998;14.858;2023-05-10T09:31:48;96991.06;;;17.98;47.59
71889;BME280;59762;49.998;14.858;2023-05-10T09:34:20;96986.59;;;18.61;48.98
71889;BME280;59762;49.998;14.858;2023-05-10T09:37:00;96990.13;;;18.61;48.63
71889;BME280;59762;49.998;14.858;2023-05-10T09:39:33;96985.53;;;18.62;47.61
71889;BME280;59762;49.998;14.858;2023-05-10T09:42:01;96986.94;;;18.71;45.76
71889;BME280;59762;49.998;14.858;2023-05-10T09:44:29;96984.41;;;18.45;45.91
71889;BME280;59762;49.998;14.858;2023-05-10T09:46:55;96984.44;;;18.69;46.44
71889;BME280;59762;49.998;14.858;2023-05-10T09:49:21;96985.25;;;18.39;47.47
71889;BME280;59762;49.998;14.858;2023-05-10T09:51:59;96987.66;;;18.84;47.07
71889;BME280;59762;49.998;14.858;2023-05-10T09:54:25;96988.06;;;19.12;47.83
71889;BME280;59762;49.998;14.858;2023-05-10T09:56:50;96982.91;;;18.80;44.81
71889;BME280;59762;49.998;14.858;2023-05-10T09:59:16;96986.31;;;19.00;46.50
71889;BME280;59762;49.998;14.858;2023-05-10T10:01:49;96986.09;;;18.70;46.57
71889;BME280;59762;49.998;14.858;2023-05-10T10:04:14;96978.97;;;17.57;47.84
71889;BME280;59762;49.998;14.858;2023-05-10T10:06:40;96994.63;;;18.36;49.18
71889;BME280;59762;49.998;14.858;2023-05-10T10:09:07;96996.56;;;18.91;48.00
71889;BME280;59762;49.998;14.858;2023-05-10T10:11:37;96992.47;;;18.51;47.24
71889;BME280;59762;49.998;14.858;2023-05-10T10:14:04;96990.63;;;18.45;46.55
71889;BME280;59762;49.998;14.858;2023-05-10T10:16:31;96991.13;;;18.91;47.20
71889;BME280;59762;49.998;14.858;2023-05-10T10:18:57;96988.25;;;18.62;47.37
71889;BME280;59762;49.998;14.858;2023-05-10T10:21:23;96986.97;;;18.64;47.27
71889;BME280;59762;49.998;14.858;2023-05-10T10:23:49;96991.22;;;18.54;48.77
71889;BME280;59762;49.998;14.858;2023-05-10T10:26:17;96988.59;;;18.96;47.58
71889;BME280;59762;49.998;14.858;2023-05-10T10:34:10;96992.84;;;19.10;44.66
71889;BME280;59762;49.998;14.858;2023-05-10T10:36:46;96987.78;;;18.96;44.84
71889;BME280;59762;49.998;14.858;2023-05-10T10:39:13;96975.16;;;19.39;45.62
71889;BME280;59762;49.998;14.858;2023-05-10T10:41:58;96981.31;;;18.97;45.35
71889;BME280;59762;49.998;14.858;2023-05-10T10:49:38;96973.41;;;18.71;46.79
71889;BME280;59762;49.998;14.858;2023-05-10T10:52:26;96972.25;;;19.34;46.74
71889;BME280;59762;49.998;14.858;2023-05-10T10:57:31;96977.88;;;19.57;46.42
71889;BME280;59762;49.998;14.858;2023-05-10T11:05:38;96974.88;;;19.40;45.88
71889;BME280;59762;49.998;14.858;2023-05-10T11:08:28;96964.75;;;19.54;44.55
71889;BME280;59762;49.998;14.858;2023-05-10T11:13:45;96963.75;;;19.30;43.57
71889;BME280;59762;49.998;14.858;2023-05-10T11:16:21;96959.88;;;19.20;44.01
71889;BME280;59762;49.998;14.858;2023-05-10T11:19:07;96962.91;;;19.54;43.74
71889;BME280;59762;49.998;14.858;2023-05-10T11:21:34;96965.50;;;19.43;43.41
71889;BME280;59762;49.998;14.858;2023-05-10T11:24:14;96962.56;;;19.62;44.64
71889;BME280;59762;49.998;14.858;2023-05-10T11:26:40;96965.91;;;19.82;44.39
71889;BME280;59762;49.998;14.858;2023-05-10T11:29:06;96960.47;;;19.46;44.37
71889;BME280;59762;49.998;14.858;2023-05-10T11:31:32;96964.13;;;19.09;45.84
71889;BME280;59762;49.998;14.858;2023-05-10T11:33:59;96964.44;;;19.26;46.46
71889;BME280;59762;49.998;14.858;2023-05-10T11:36:29;96960.41;;;19.53;46.21
71889;BME280;59762;49.998;14.858;2023-05-10T11:38:57;96964.53;;;19.13;45.06
71889;BME280;59762;49.998;14.858;2023-05-10T11:41:24;96964.06;;;19.40;47.22
71889;BME280;59762;49.998;14.858;2023-05-10T11:43:52;96963.69;;;19.73;47.07
71889;BME280;59762;49.998;14.858;2023-05-10T11:46:19;96966.34;;;19.43;47.72
71889;BME280;59762;49.998;14.858;2023-05-10T11:48:49;96966.41;;;19.55;46.30
71889;BME280;59762;49.998;14.858;2023-05-10T11:51:20;96963.19;;;19.82;46.48
71889;BME280;59762;49.998;14.858;2023-05-10T11:53:46;96967.53;;;19.65;46.27
71889;BME280;59762;49.998;14.858;2023-05-10T11:56:12;96971.72;;;19.01;47.34
71889;BME280;59762;49.998;14.858;2023-05-10T11:58:38;96956.78;;;19.59;45.32
71889;BME280;59762;49.998;14.858;2023-05-10T12:01:05;96968.72;;;18.84;47.54
71889;BME280;59762;49.998;14.858;2023-05-10T12:03:32;96973.38;;;19.26;45.92
71889;BME280;59762;49.998;14.858;2023-05-10T12:05:58;96972.59;;;19.44;45.70
71889;BME280;59762;49.998;14.858;2023-05-10T12:08:26;96975.47;;;19.00;45.82
71889;BME280;59762;49.998;14.858;2023-05-10T12:10:54;96968.13;;;19.31;44.71
71889;BME280;59762;49.998;14.858;2023-05-10T12:13:29;96972.00;;;19.78;45.73
71889;BME280;59762;49.998;14.858;2023-05-10T12:15:57;96985.19;;;20.10;44.95
71889;BME280;59762;49.998;14.858;2023-05-10T12:18:24;96972.53;;;19.50;44.82
71889;BME280;59762;49.998;14.858;2023-05-10T12:20:52;96984.63;;;19.23;45.39
71889;BME280;59762;49.998;14.858;2023-05-10T12:23:20;96987.22;;;19.36;44.58
71889;BME280;59762;49.998;14.858;2023-05-10T12:25:47;96980.78;;;19.55;44.15
71889;BME280;59762;49.998;14.858;2023-05-10T12:28:12;96970.88;;;19.85;43.52
71889;BME280;59762;49.998;14.858;2023-05-10T12:30:38;96969.19;;;19.66;45.01
71889;BME280;59762;49.998;14.858;2023-05-10T12:35:47;96971.81;;;19.37;43.44
71889;BME280;59762;49.998;14.858;2023-05-10T12:40:50;96978.97;;;20.21;43.46
71889;BME280;59762;49.998;14.858;2023-05-10T12:43:16;96978.31;;;20.67;42.27
71889;BME280;59762;49.998;14.858;2023-05-10T12:45:42;96968.50;;;20.07;44.35
71889;BME280;59762;49.998;14.858;2023-05-10T12:48:07;96972.88;;;19.54;43.63
71889;BME280;59762;49.998;14.858;2023-05-10T12:50:33;96971.38;;;19.40;43.83
71889;BME280;59762;49.998;14.858;2023-05-10T12:52:59;96979.09;;;19.36;45.00
71889;BME280;59762;49.998;14.858;2023-05-10T12:55:24;96977.34;;;19.24;45.81
71889;BME280;59762;49.998;14.858;2023-05-10T12:57:50;96969.16;;;19.06;45.82
71889;BME280;59762;49.998;14.858;2023-05-10T13:00:15;96974.53;;;18.88;45.33
71889;BME280;59762;49.998;14.858;2023-05-10T13:02:41;96975.22;;;18.77;45.27
71889;BME280;59762;49.998;14.858;2023-05-10T13:05:07;96980.81;;;18.82;45.59
71889;BME280;59762;49.998;14.858;2023-05-10T13:07:33;96969.72;;;19.39;44.55
71889;BME280;59762;49.998;14.858;2023-05-10T13:09:58;96978.66;;;19.39;44.22
71889;BME280;59762;49.998;14.858;2023-05-10T13:12:24;96972.53;;;19.50;44.54
71889;BME280;59762;49.998;14.858;2023-05-10T13:14:50;96974.25;;;19.20;45.51
71889;BME280;59762;49.998;14.858;2023-05-10T13:17:16;96986.94;;;18.71;46.34
71889;BME280;59762;49.998;14.858;2023-05-10T13:19:41;96972.47;;;19.08;46.18
71889;BME280;59762;49.998;14.858;2023-05-10T13:22:07;96974.47;;;19.43;46.24
71889;BME280;59762;49.998;14.858;2023-05-10T13:24:32;96971.28;;;19.28;45.17
71889;BME280;59762;49.998;14.858;2023-05-10T13:26:58;96974.88;;;19.40;44.84
71889;BME280;59762;49.998;14.858;2023-05-10T13:29:24;96976.22;;;19.31;45.77
71889;BME280;59762;49.998;14.858;2023-05-10T13:31:50;96964.66;;;19.24;45.85
71889;BME280;59762;49.998;14.858;2023-05-10T13:34:15;96975.47;;;19.00;46.97